METAR Data
IDs: Format: Raw Decoded Include TAF

Data at: 1307 UTC 16 Oct 2018

PABV 161256Z AUTO VRB04KT 10SM -RA FEW060 OVC085 11/06 A2923 RMK AO2 SLP905 P0000 T01110056
PABV 161156Z AUTO VRB03KT 10SM -RA SCT060 OVC075 13/05 A2921 RMK AO2 SLP898 P0000 60002 70003 T01280050 10133 20094 56020
PABV 161056Z AUTO 05010G19KT 030V090 10SM -RA SCT060 OVC080 12/06 A2921 RMK AO2 SLP901 P0000 T01220061
PABV 160956Z AUTO 02008G19KT 10SM -RA BKN090 OVC110 11/07 A2924 RMK AO2 SLP910 P0000 T01060067
PABV 160856Z AUTO 04012G16KT 10SM -RA BKN080 BKN095 OVC110 11/07 A2927 RMK AO2 SLP919 P0000 60002 T01110072 56005
PABV 160756Z AUTO 00000KT 10SM -RA OVC090 10/08 A2927 RMK AO2 PK WND 06027/0709 WSHFT 0644 SLP920 P0001 T01000083 401171017
PABV 160704Z AUTO 05020G25KT 10SM -RA OVC095 11/08 A2927 RMK AO2 WSHFT 0644 P0000
PABV 160656Z AUTO 04016G28KT 10SM -RA OVC095 11/08 A2927 RMK AO2 PK WND 04028/0653 SLP921 P0001 T01110083
PABV 160556Z AUTO 04011G16KT 10SM -RA OVC095 10/09 A2928 RMK AO2 SLP924 P0001 60001 T01000089 10100 20044 56025
PABV 160456Z AUTO 00000KT 10SM -RA OVC090 04/04 A2931 RMK AO2 SLP932 P0000 T00440039
PABV 160356Z AUTO 00000KT 10SM -RA OVC080 05/03 A2933 RMK AO2 SLP939 P0000 T00500028
PABV 160256Z AUTO 00000KT 10SM -RA OVC080 05/02 A2936 RMK AO2 SLP949 P0000 60000 T00500022 56030
PABV 160156Z AUTO 21005KT 10SM -RA BKN075 OVC100 05/02 A2937 RMK AO2 RAE11B35 SLP955 P0000 T00500022
PABV 160056Z AUTO 20006KT 10SM -RA OVC080 04/02 A2941 RMK AO2 RAE33B56 SLP967 P0000 T00440017
PABV 152356Z AUTO 20009KT 10SM -RA OVC085 05/02 A2945 RMK AO2 RAB18 SLP980 P0000 60000 T00500017 10050 20017 58026
PABV 152256Z AUTO 20007KT 10SM OVC090 05/02 A2947 RMK AO2 RAB26E37 SLP987 P0000 T00500017
PABV 152156Z AUTO 20009KT 10SM OVC095 04/02 A2951 RMK AO2 SLP001 T00390017
PABV 152056Z AUTO 00000KT 10SM BKN095 OVC120 04/02 A2952 RMK AO2 RAB00E30 SLP006 P0000 60000 T00390022 58033
PABV 151956Z AUTO 14003KT 10SM OVC095 03/02 A2957 RMK AO2 SLP022 T00280017
PABV 151856Z AUTO 18005KT 10SM BKN095 OVC110 02/01 A2961 RMK AO2 RAB01E11 SLP037 P0000 T00220011 FZRANO
PABV 151756Z AUTO 00000KT 10SM CLR 02/01 A2962 RMK AO2 SLP039 T00170006 10017 21017 58019 FZRANO
PABV 151656Z AUTO 00000KT 10SM SCT120 02/00 A2964 RMK AO2 SLP045 T00170000 FZRANO
PABV 151556Z AUTO 16003KT 10SM CLR 01/00 A2967 RMK AO2 SLP056 T00110000 FZRANO
PABV 151456Z AUTO 24003KT 10SM CLR 01/00 A2968 RMK AO2 SLP058 T00060000 56008 FZRANO
PABV 151356Z AUTO 00000KT 10SM CLR M01/M02 A2968 RMK AO2 SLP058 T10061017 FZRANO
PABV 151256Z AUTO 17003KT 10SM CLR M01/M02 A2970 RMK AO2 SLP067 T10111017 FZRANO
PABV 151156Z AUTO 16003KT 10SM CLR M02/M02 A2970 RMK AO2 SLP067 T10171022 10033 21017 58010 FZRANO
PABV 151056Z AUTO 11003KT 10SM SCT120 M01/M02 A2971 RMK AO2 SLP069 T10111017 FZRANO
PABV 150956Z AUTO 17003KT 10SM CLR M01/M02 A2974 RMK AO2 SLP079 T10111022 FZRANO
PABV 150856Z AUTO 00000KT 10SM CLR M01/M02 A2973 RMK AO2 SLP077 T10061017 58005 FZRANO
PABV 150756Z AUTO 15004KT 10SM CLR 01/M01 A2974 RMK AO2 SLP081 T00061006 400780006 FZRANO
PABV 150656Z AUTO 00000KT 10SM CLR 02/01 A2975 RMK AO2 SLP082 T00170011 FZRANO
PABV 150556Z AUTO 00000KT 10SM CLR 03/01 A2975 RMK AO2 SLP082 T00280006 10078 20028 58006
PABV 150456Z AUTO 16004KT 10SM SCT110 04/03 A2976 RMK AO2 SLP086 T00440033
PABV 150356Z AUTO 20004KT 10SM FEW110 06/03 A2976 RMK AO2 SLP088 T00560033
PABV 150256Z AUTO 21004KT 10SM CLR 06/03 A2976 RMK AO2 SLP088 T00560033 56015
PABV 150156Z AUTO 25003KT 10SM CLR 07/02 A2977 RMK AO2 SLP088 T00720017